Time;durP1;ratioP1;P1;durP2;ratioP2;P2;SDS_P1;SDS_P2;PMS_P1;PMS_P2;Temp;Humidity;BMP_temperature;BMP_pressure;BME280_temperature;BME280_humidity;BME280_pressure;Samples;Min_cycle;Max_cycle;Signal;HPM_P1;HPM_P2
2021/07/06 00:01:52;;;;;;;57.42;32.65;;;24.10;68.00;;;;;;4892286;28;88054;-13
2021/07/06 00:04:18;;;;;;;51.63;32.17;;;24.10;67.90;;;;;;4893333;28;88978;-23
2021/07/06 00:06:44;;;;;;;56.28;32.78;;;24.10;67.80;;;;;;4893425;28;88882;-14
2021/07/06 00:09:10;;;;;;;54.40;30.80;;;24.10;67.80;;;;;;4893273;28;87181;-11
2021/07/06 00:11:36;;;;;;;56.00;33.35;;;24.20;67.80;;;;;;4893037;28;87864;-14
2021/07/06 00:14:01;;;;;;;53.10;31.38;;;24.10;67.80;;;;;;4892936;28;88085;-15
2021/07/06 00:16:27;;;;;;;55.17;31.15;;;24.10;68.30;;;;;;4893106;28;87893;-12
2021/07/06 00:18:53;;;;;;;54.50;31.23;;;24.10;67.90;;;;;;4893186;28;88148;-13
2021/07/06 00:21:18;;;;;;;52.15;31.75;;;24.10;67.80;;;;;;4892675;28;87560;-20
2021/07/06 00:23:44;;;;;;;52.00;31.20;;;24.10;67.70;;;;;;4892681;28;88217;-12
2021/07/06 00:26:10;;;;;;;51.53;31.50;;;24.10;67.60;;;;;;4892531;28;88042;-13
2021/07/06 00:28:35;;;;;;;54.20;31.08;;;24.20;67.70;;;;;;4891914;28;89239;-13
2021/07/06 00:31:01;;;;;;;56.08;32.83;;;24.20;67.60;;;;;;4891031;28;88100;-13
2021/07/06 00:33:30;;;;;;;53.65;31.48;;;24.20;67.60;;;;;;4891956;28;87965;-21
2021/07/06 00:35:59;;;;;;;51.88;31.73;;;24.20;67.60;;;;;;4891915;28;87646;-22
2021/07/06 00:38:26;;;;;;;54.88;30.83;;;24.20;67.60;;;;;;4896124;28;87535;-13
2021/07/06 00:40:53;;;;;;;56.25;32.40;;;24.10;67.50;;;;;;4911246;28;87713;-13
2021/07/06 00:43:19;;;;;;;50.47;31.00;;;24.10;67.50;;;;;;4910584;28;89566;-17
2021/07/06 00:45:45;;;;;;;52.10;30.75;;;24.20;67.50;;;;;;4910643;28;87217;-12
2021/07/06 00:48:10;;;;;;;50.55;30.50;;;24.10;67.40;;;;;;4910471;28;87909;-19
2021/07/06 00:50:36;;;;;;;51.63;30.67;;;24.20;67.50;;;;;;4910591;28;87603;-22
2021/07/06 00:53:02;;;;;;;48.97;29.60;;;24.10;67.40;;;;;;4910592;28;89100;-12
2021/07/06 00:55:30;;;;;;;52.13;31.52;;;24.10;67.50;;;;;;4911489;28;88389;-16
2021/07/06 00:57:55;;;;;;;52.60;31.75;;;24.10;67.40;;;;;;4911448;28;87276;-13
2021/07/06 01:00:23;;;;;;;50.72;31.13;;;24.10;67.50;;;;;;4911027;28;88330;-12
2021/07/06 01:02:50;;;;;;;47.63;29.90;;;24.10;67.40;;;;;;4910581;28;88186;-18
2021/07/06 01:05:18;;;;;;;50.75;29.73;;;24.10;67.40;;;;;;4910267;28;88577;-15
2021/07/06 01:07:44;;;;;;;50.95;30.73;;;24.10;67.40;;;;;;4910477;28;88355;-15
2021/07/06 01:10:11;;;;;;;47.92;28.75;;;24.10;67.40;;;;;;4911217;28;86902;-13
2021/07/06 01:12:37;;;;;;;50.72;29.95;;;24.10;67.40;;;;;;4910380;28;89011;-17
2021/07/06 01:15:06;;;;;;;51.05;29.80;;;24.10;67.40;;;;;;4910510;28;88029;-14
2021/07/06 01:17:32;;;;;;;52.08;30.10;;;24.10;67.40;;;;;;4893663;28;88842;-18
2021/07/06 01:19:59;;;;;;;47.72;29.25;;;24.10;67.40;;;;;;4891427;28;87412;-13
2021/07/06 01:22:31;;;;;;;51.65;31.23;;;24.10;67.40;;;;;;4891925;28;88222;-12
2021/07/06 01:24:58;;;;;;;45.95;27.65;;;24.10;67.40;;;;;;4892064;28;87402;-22
2021/07/06 01:27:24;;;;;;;44.75;28.40;;;24.10;67.40;;;;;;4891875;28;87702;-13
2021/07/06 01:29:50;;;;;;;48.30;29.08;;;24.10;67.40;;;;;;4892145;28;87946;-20
2021/07/06 01:32:16;;;;;;;46.65;28.30;;;24.10;67.40;;;;;;4892785;28;88999;-17
2021/07/06 01:34:42;;;;;;;48.40;29.13;;;24.10;67.50;;;;;;4895462;28;87280;-14
2021/07/06 01:37:08;;;;;;;45.72;28.17;;;24.10;67.40;;;;;;4895311;28;87676;-12
2021/07/06 01:39:33;;;;;;;48.58;29.35;;;24.10;67.40;;;;;;4895372;28;88140;-12
2021/07/06 01:42:02;;;;;;;44.92;27.70;;;24.10;67.40;;;;;;4894811;28;89150;-14
2021/07/06 01:44:28;;;;;;;46.95;29.13;;;24.10;67.40;;;;;;4894567;28;89574;-12
2021/07/06 01:46:54;;;;;;;44.45;28.42;;;24.10;67.40;;;;;;4894558;28;87805;-12
2021/07/06 01:49:21;;;;;;;47.80;28.90;;;24.10;67.70;;;;;;4894495;28;88052;-13
2021/07/06 01:51:47;;;;;;;46.40;27.30;;;24.10;67.40;;;;;;4894297;28;88727;-12
2021/07/06 01:54:14;;;;;;;48.28;28.23;;;24.00;67.30;;;;;;4894114;28;88007;-12
2021/07/06 01:56:45;;;;;;;47.10;28.92;;;24.10;68.00;;;;;;4894436;28;88136;-18
2021/07/06 01:59:11;;;;;;;47.10;29.30;;;24.10;67.40;;;;;;4895203;28;87485;-18
2021/07/06 02:01:38;;;;;;;44.08;28.88;;;24.10;67.30;;;;;;4894303;28;88198;-16
2021/07/06 02:04:06;;;;;;;47.10;28.20;;;24.10;67.40;;;;;;4894363;28;88957;-14
2021/07/06 02:06:33;;;;;;;43.58;28.48;;;24.10;67.40;;;;;;4892585;28;88645;-11
2021/07/06 02:09:00;;;;;;;49.58;26.98;;;24.00;67.30;;;;;;4894758;28;88115;-19
2021/07/06 02:11:26;;;;;;;48.97;28.30;;;24.10;67.40;;;;;;4894507;28;88235;-13
2021/07/06 02:13:52;;;;;;;44.28;27.27;;;24.10;67.30;;;;;;4894752;28;88229;-19
2021/07/06 02:16:18;;;;;;;47.00;27.85;;;24.00;67.30;;;;;;4895017;28;87740;-13
2021/07/06 02:18:44;;;;;;;45.72;27.90;;;24.10;67.40;;;;;;4893738;28;87613;-15
2021/07/06 02:21:10;;;;;;;43.60;25.90;;;24.10;67.90;;;;;;4893599;28;87719;-17
2021/07/06 02:23:35;;;;;;;45.22;28.02;;;24.00;67.30;;;;;;4895054;28;87419;-17
2021/07/06 02:26:07;;;;;;;44.75;26.83;;;24.00;67.30;;;;;;4894040;28;87551;-16
2021/07/06 02:28:33;;;;;;;46.90;28.33;;;24.00;67.30;;;;;;4894940;28;88100;-13
2021/07/06 02:30:59;;;;;;;43.45;26.83;;;24.00;67.30;;;;;;4894144;28;88096;-13
2021/07/06 02:33:31;;;;;;;43.22;27.00;;;24.00;67.30;;;;;;4894458;28;88316;-14
2021/07/06 02:35:57;;;;;;;37.80;25.23;;;24.00;67.30;;;;;;4893468;28;87095;-12
2021/07/06 02:38:23;;;;;;;42.88;26.85;;;24.00;67.30;;;;;;4893739;28;87679;-12
2021/07/06 02:40:48;;;;;;;45.03;26.38;;;24.00;67.20;;;;;;4894250;28;88078;-12
2021/07/06 02:43:14;;;;;;;43.17;26.05;;;24.00;67.20;;;;;;4893626;28;87857;-11
2021/07/06 02:45:40;;;;;;;40.08;25.50;;;24.00;67.20;;;;;;4894514;28;87743;-13
2021/07/06 02:48:07;;;;;;;42.63;25.35;;;24.00;67.20;;;;;;4893222;28;88187;-22
2021/07/06 02:50:36;;;;;;;43.40;26.38;;;24.00;67.20;;;;;;4893994;28;88113;-16
2021/07/06 02:53:02;;;;;;;40.00;25.88;;;24.00;67.20;;;;;;4894319;28;87882;-12
2021/07/06 02:55:27;;;;;;;40.15;25.40;;;24.00;67.20;;;;;;4893282;28;88648;-12
2021/07/06 02:57:53;;;;;;;40.65;25.80;;;24.00;67.20;;;;;;4894112;28;88245;-12
2021/07/06 03:00:28;;;;;;;43.55;26.80;;;24.00;67.20;;;;;;4934526;22;87783;-27
2021/07/06 03:02:56;;;;;;;40.72;25.92;;;24.00;67.20;;;;;;4912592;28;87839;-28
2021/07/06 03:05:24;;;;;;;43.67;26.00;;;24.00;67.20;;;;;;4911770;28;88271;-22
2021/07/06 03:07:51;;;;;;;39.78;25.23;;;24.00;67.20;;;;;;4912367;28;87704;-15
2021/07/06 03:10:28;;;;;;;42.38;25.58;;;24.00;67.20;;;;;;4912183;28;88253;-19
2021/07/06 03:12:54;;;;;;;43.33;24.80;;;23.90;67.20;;;;;;4909583;28;91449;-35
2021/07/06 03:15:22;;;;;;;42.67;26.27;;;24.00;67.20;;;;;;4908890;28;87652;-30
2021/07/06 03:17:48;;;;;;;40.10;24.55;;;24.00;67.30;;;;;;4911652;28;88025;-16
2021/07/06 03:20:16;;;;;;;40.35;23.98;;;24.00;67.20;;;;;;4911232;28;89141;-19
2021/07/06 03:22:42;;;;;;;39.92;25.45;;;24.00;67.20;;;;;;4910284;28;90115;-36
2021/07/06 03:25:12;;;;;;;43.40;24.50;;;24.00;67.20;;;;;;4912360;28;87178;-16
2021/07/06 03:27:39;;;;;;;38.15;24.58;;;23.90;67.20;;;;;;4912585;28;88233;-15
2021/07/06 03:30:08;;;;;;;41.08;24.77;;;23.90;67.20;;;;;;4911341;28;88863;-26
2021/07/06 03:32:34;;;;;;;41.22;24.73;;;24.00;67.20;;;;;;4908527;28;89325;-36
2021/07/06 03:35:01;;;;;;;40.35;25.25;;;23.90;67.20;;;;;;4911367;28;87748;-20
2021/07/06 03:37:27;;;;;;;41.92;24.48;;;23.90;67.20;;;;;;4909982;28;88759;-16
2021/07/06 03:39:52;;;;;;;39.70;24.75;;;24.00;67.20;;;;;;4910674;28;88326;-25
2021/07/06 03:42:18;;;;;;;39.13;24.67;;;24.00;67.20;;;;;;4911646;28;87795;-33
2021/07/06 03:44:44;;;;;;;39.47;24.60;;;23.90;67.20;;;;;;4910560;28;88115;-32
2021/07/06 03:47:09;;;;;;;40.25;25.02;;;23.90;67.20;;;;;;4912252;28;87267;-37
2021/07/06 03:49:35;;;;;;;40.50;24.58;;;23.90;67.20;;;;;;4912380;28;88065;-26
2021/07/06 03:52:05;;;;;;;40.70;24.85;;;23.90;67.10;;;;;;4911906;28;88038;-36
2021/07/06 03:54:30;;;;;;;37.45;23.98;;;23.90;67.20;;;;;;4911173;28;88325;-24
2021/07/06 03:56:56;;;;;;;38.13;24.13;;;23.90;67.20;;;;;;4909721;28;88768;-32
2021/07/06 03:59:23;;;;;;;39.47;23.83;;;23.90;67.20;;;;;;4910813;28;89493;-25
2021/07/06 04:01:49;;;;;;;39.80;25.38;;;23.90;67.20;;;;;;4911364;28;87741;-36
2021/07/06 04:04:15;;;;;;;40.92;25.05;;;23.90;67.20;;;;;;4912457;28;87644;-15
2021/07/06 04:06:40;;;;;;;36.40;23.75;;;24.00;67.20;;;;;;4911528;28;88200;-18
2021/07/06 04:09:08;;;;;;;40.80;24.42;;;23.90;67.10;;;;;;4911067;28;89235;-20
2021/07/06 04:11:34;;;;;;;35.90;23.08;;;23.90;67.20;;;;;;4909477;28;93282;-16
2021/07/06 04:14:00;;;;;;;34.72;23.45;;;23.90;67.10;;;;;;4909440;28;87269;-24
2021/07/06 04:16:25;;;;;;;37.58;23.40;;;23.90;67.10;;;;;;4911603;28;87629;-24
2021/07/06 04:18:51;;;;;;;38.25;23.75;;;24.00;67.20;;;;;;4910622;28;88226;-25
2021/07/06 04:21:17;;;;;;;35.35;23.30;;;23.90;67.10;;;;;;4911122;28;88185;-19
2021/07/06 04:23:42;;;;;;;38.33;23.00;;;24.00;67.20;;;;;;4911405;28;87213;-16
2021/07/06 04:26:08;;;;;;;35.03;22.45;;;23.90;67.10;;;;;;4911882;28;86931;-32
2021/07/06 04:28:35;;;;;;;37.05;23.40;;;23.90;67.10;;;;;;4910050;28;89867;-16
2021/07/06 04:31:01;;;;;;;35.50;22.40;;;23.90;67.10;;;;;;4911446;28;89440;-24
2021/07/06 04:33:26;;;;;;;37.47;22.67;;;23.90;67.10;;;;;;4911076;28;89131;-33
2021/07/06 04:35:53;;;;;;;35.35;22.70;;;23.90;67.10;;;;;;4911604;28;87684;-19
2021/07/06 04:38:18;;;;;;;35.80;23.00;;;23.90;67.10;;;;;;4911114;28;88183;-17
2021/07/06 04:40:44;;;;;;;35.95;22.92;;;23.90;67.10;;;;;;4911091;28;87837;-22
2021/07/06 04:43:10;;;;;;;34.40;21.88;;;23.90;67.10;;;;;;4910998;28;88122;-18
2021/07/06 04:45:37;;;;;;;36.58;22.15;;;23.90;67.10;;;;;;4920853;28;87619;-39
2021/07/06 04:48:03;;;;;;;33.72;22.00;;;23.90;67.10;;;;;;4910812;28;88122;-15
2021/07/06 04:50:31;;;;;;;33.42;21.85;;;23.90;67.20;;;;;;4911089;28;89576;-27
2021/07/06 04:52:57;;;;;;;34.25;21.48;;;23.90;67.20;;;;;;4911446;28;88015;-31
2021/07/06 04:55:23;;;;;;;32.78;21.48;;;23.90;67.10;;;;;;4911499;28;87188;-14
2021/07/06 04:57:48;;;;;;;33.90;21.75;;;23.90;67.10;;;;;;4910348;28;89169;-33
2021/07/06 05:00:16;;;;;;;36.55;22.90;;;23.90;67.10;;;;;;4909197;28;90447;-22
2021/07/06 05:02:43;;;;;;;34.13;21.95;;;23.90;67.10;;;;;;4909645;28;87725;-31
2021/07/06 05:05:10;;;;;;;34.90;21.55;;;23.90;67.10;;;;;;4909285;28;88645;-16
2021/07/06 05:07:36;;;;;;;32.15;21.38;;;23.90;67.10;;;;;;4912475;28;88716;-40
2021/07/06 05:10:07;;;;;;;33.67;21.25;;;23.90;67.10;;;;;;4913497;28;87936;-31
2021/07/06 05:12:33;;;;;;;32.53;21.02;;;23.90;67.10;;;;;;4913746;28;87163;-16
2021/07/06 05:14:59;;;;;;;34.17;21.90;;;23.90;67.10;;;;;;4914554;28;88681;-18
2021/07/06 05:17:25;;;;;;;33.20;20.85;;;23.90;67.20;;;;;;4914132;28;88196;-37
2021/07/06 05:19:50;;;;;;;34.33;21.55;;;23.90;67.10;;;;;;4914443;28;87564;-15
2021/07/06 05:22:16;;;;;;;34.50;22.23;;;23.90;67.10;;;;;;4925836;28;88942;-23
2021/07/06 05:24:41;;;;;;;34.17;22.38;;;23.90;67.10;;;;;;4932852;28;88185;-17
2021/07/06 05:27:07;;;;;;;34.25;21.45;;;23.90;67.20;;;;;;4932422;28;88600;-16
2021/07/06 05:29:33;;;;;;;34.92;22.55;;;23.90;67.10;;;;;;4933816;28;88075;-34
2021/07/06 05:31:58;;;;;;;33.67;21.08;;;23.90;67.20;;;;;;4926453;28;88045;-17
2021/07/06 05:34:24;;;;;;;31.63;20.23;;;23.90;67.20;;;;;;4933563;28;88567;-29
2021/07/06 05:36:50;;;;;;;32.45;20.85;;;23.90;67.20;;;;;;4933340;28;88305;-15
2021/07/06 05:39:16;;;;;;;39.10;21.23;;;23.90;67.10;;;;;;4933238;28;86456;-29
2021/07/06 05:41:42;;;;;;;34.88;20.63;;;23.90;67.00;;;;;;4932253;28;88236;-18
2021/07/06 05:44:08;;;;;;;38.30;18.67;;;23.90;67.10;;;;;;4932388;28;87148;-22
2021/07/06 05:46:34;;;;;;;56.90;21.63;;;23.90;67.10;;;;;;4931775;28;89341;-37
2021/07/06 05:49:00;;;;;;;59.47;21.85;;;23.90;67.20;;;;;;4933181;28;88893;-16
2021/07/06 05:51:26;;;;;;;45.72;21.70;;;23.90;67.20;;;;;;4933307;28;87189;-16
2021/07/06 05:53:51;;;;;;;50.72;20.95;;;23.90;67.30;;;;;;4932174;28;89106;-30
2021/07/06 05:56:18;;;;;;;56.45;21.67;;;23.90;67.30;;;;;;4929083;28;89070;-22
2021/07/06 05:58:44;;;;;;;56.13;22.80;;;23.90;67.60;;;;;;4931378;28;88375;-40
2021/07/06 06:01:10;;;;;;;57.97;20.73;;;23.90;67.70;;;;;;4930037;28;87954;-16
2021/07/06 06:03:36;;;;;;;42.03;20.08;;;23.90;67.60;;;;;;4930142;28;88980;-17
2021/07/06 06:06:02;;;;;;;46.17;18.55;;;23.90;67.80;;;;;;4909940;28;89524;-20
2021/07/06 06:08:28;;;;;;;50.03;18.13;;;23.90;67.90;;;;;;4931552;28;87959;-33
2021/07/06 06:10:53;;;;;;;46.25;19.00;;;24.00;67.80;;;;;;4923968;28;88760;-41
2021/07/06 06:13:19;;;;;;;43.90;18.45;;;24.00;68.40;;;;;;4910361;28;87814;-18
2021/07/06 06:15:44;;;;;;;51.65;17.80;;;24.00;68.60;;;;;;4912275;28;88182;-19
2021/07/06 06:18:13;;;;;;;43.88;18.23;;;24.00;68.30;;;;;;4883748;28;87818;-25
2021/07/06 06:20:38;;;;;;;43.90;14.02;;;24.10;68.20;;;;;;4885339;28;88448;-23
2021/07/06 06:23:04;;;;;;;33.80;10.88;;;24.00;67.30;;;;;;4846208;28;88502;-27
2021/07/06 06:25:30;;;;;;;24.38;8.20;;;24.10;66.20;;;;;;4899520;28;88565;-20
2021/07/06 06:27:56;;;;;;;23.25;7.38;;;24.00;64.90;;;;;;4900622;28;87980;-22
2021/07/06 06:30:22;;;;;;;16.05;5.95;;;23.90;64.40;;;;;;4913279;28;87073;-22
2021/07/06 06:32:48;;;;;;;10.93;3.85;;;24.00;64.00;;;;;;4879126;28;87337;-26
2021/07/06 06:35:14;;;;;;;12.77;3.33;;;24.00;63.50;;;;;;4918412;28;90560;-21
2021/07/06 06:37:41;;;;;;;8.98;3.00;;;23.90;63.00;;;;;;4931130;28;89371;-31
2021/07/06 06:40:08;;;;;;;7.55;2.28;;;23.80;62.80;;;;;;4931660;28;87185;-19
2021/07/06 06:42:34;;;;;;;11.27;3.15;;;23.70;62.50;;;;;;4911307;28;88372;-26
2021/07/06 06:45:00;;;;;;;10.70;3.25;;;23.70;63.90;;;;;;4887169;28;91665;-22
2021/07/06 06:47:26;;;;;;;11.30;2.95;;;23.70;64.20;;;;;;4913326;28;87775;-16
2021/07/06 06:49:52;;;;;;;12.57;3.60;;;23.80;64.40;;;;;;4912792;28;88231;-19
2021/07/06 06:52:17;;;;;;;9.73;3.40;;;23.80;64.70;;;;;;4911635;28;87585;-18
2021/07/06 06:54:43;;;;;;;13.52;4.43;;;23.90;64.60;;;;;;4929546;28;91515;-43
2021/07/06 06:57:09;;;;;;;10.85;3.78;;;24.00;64.80;;;;;;4932026;28;87806;-21
2021/07/06 06:59:34;;;;;;;12.23;3.40;;;24.10;64.60;;;;;;4930453;28;88651;-30
2021/07/06 07:02:20;;;;;;;11.80;3.78;;;24.10;64.50;;;;;;4930899;28;88327;-24
2021/07/06 07:04:48;;;;;;;13.32;3.45;;;24.20;64.50;;;;;;4930860;28;88331;-22
2021/07/06 07:07:17;;;;;;;12.60;2.63;;;24.20;64.60;;;;;;4929168;28;90455;-17
2021/07/06 07:09:43;;;;;;;17.00;3.03;;;24.20;64.00;;;;;;4930847;28;87921;-17
2021/07/06 07:12:09;;;;;;;10.93;3.10;;;24.30;64.00;;;;;;4931087;28;87492;-25
2021/07/06 07:14:36;;;;;;;8.38;2.50;;;24.30;63.50;;;;;;4931552;28;89228;-33
2021/07/06 07:17:03;;;;;;;10.23;2.80;;;24.30;63.30;;;;;;4932481;28;87388;-17
2021/07/06 07:19:29;;;;;;;9.88;3.20;;;24.30;63.20;;;;;;4932002;28;87887;-28
2021/07/06 07:21:54;;;;;;;11.80;2.85;;;24.40;63.30;;;;;;4931737;28;87429;-30
2021/07/06 07:24:20;;;;;;;9.00;2.60;;;24.40;63.10;;;;;;4930106;28;89112;-26
2021/07/06 07:26:46;;;;;;;14.00;3.33;;;24.40;62.90;;;;;;4930750;28;89771;-29
2021/07/06 07:29:11;;;;;;;14.65;3.10;;;24.40;63.10;;;;;;4930644;28;87915;-23
2021/07/06 07:31:37;;;;;;;18.52;3.58;;;24.50;63.10;;;;;;4930616;28;87835;-29
2021/07/06 07:34:03;;;;;;;12.88;4.70;;;24.50;62.90;;;;;;4918329;28;88219;-32
2021/07/06 07:36:29;;;;;;;18.67;5.07;;;24.50;63.00;;;;;;4909152;28;90792;-30
2021/07/06 07:38:56;;;;;;;23.38;5.28;;;24.50;63.10;;;;;;4909930;28;88042;-32
2021/07/06 07:41:21;;;;;;;18.95;5.28;;;24.60;63.20;;;;;;4912050;28;87040;-22
2021/07/06 07:43:52;;;;;;;16.75;5.55;;;24.60;63.30;;;;;;4911803;28;88628;-17
2021/07/06 07:46:18;;;;;;;24.42;7.32;;;24.60;63.50;;;;;;4912274;28;88025;-25
2021/07/06 07:48:45;;;;;;;34.80;14.45;;;24.60;63.70;;;;;;4919726;28;88638;-24
2021/07/06 07:51:10;;;;;;;48.55;18.90;;;24.70;64.00;;;;;;4931028;28;87660;-18
2021/07/06 07:53:36;;;;;;;45.45;21.02;;;24.70;64.20;;;;;;4929136;28;91446;-17
2021/07/06 07:56:02;;;;;;;47.05;19.00;;;24.70;64.30;;;;;;4930363;28;87437;-19
2021/07/06 07:58:27;;;;;;;47.25;19.20;;;24.80;64.20;;;;;;4930379;28;87105;-26
2021/07/06 08:00:53;;;;;;;48.63;18.52;;;24.80;64.20;;;;;;4930171;28;87750;-26
2021/07/06 08:03:18;;;;;;;47.03;19.10;;;24.90;64.30;;;;;;4928672;28;91321;-20
2021/07/06 08:05:44;;;;;;;41.05;18.42;;;24.90;64.50;;;;;;4930297;28;88556;-20
2021/07/06 08:08:10;;;;;;;48.05;18.02;;;24.90;64.30;;;;;;4929868;28;87226;-25
2021/07/06 08:10:35;;;;;;;42.03;17.23;;;24.90;64.30;;;;;;4928959;28;87262;-28
2021/07/06 08:13:01;;;;;;;37.85;16.52;;;25.00;64.40;;;;;;4926697;28;90541;-22
2021/07/06 08:15:26;;;;;;;40.03;16.48;;;25.00;64.40;;;;;;4929685;28;89021;-34
2021/07/06 08:17:52;;;;;;;34.50;12.40;;;25.00;64.70;;;;;;4929378;28;88360;-33
2021/07/06 08:20:18;;;;;;;25.80;12.95;;;25.00;63.90;;;;;;4918310;28;88092;-29
2021/07/06 08:22:44;;;;;;;29.23;12.88;;;25.00;63.90;;;;;;4909071;28;90615;-20
2021/07/06 08:25:10;;;;;;;31.80;11.98;;;25.00;64.00;;;;;;4910804;28;88007;-39
2021/07/06 08:27:36;;;;;;;30.58;12.10;;;25.10;64.20;;;;;;4910645;28;88303;-33
2021/07/06 08:30:03;;;;;;;30.08;11.25;;;25.00;64.00;;;;;;4910518;28;88343;-30
2021/07/06 08:32:29;;;;;;;29.23;12.90;;;25.10;64.30;;;;;;4910615;28;88227;-18
2021/07/06 08:34:54;;;;;;;26.17;10.80;;;25.10;64.30;;;;;;4910828;28;87839;-17
2021/07/06 08:37:20;;;;;;;27.58;10.98;;;25.10;64.10;;;;;;4910389;28;88501;-17
2021/07/06 08:39:45;;;;;;;21.48;9.95;;;25.10;64.00;;;;;;4925041;28;87828;-20
2021/07/06 08:42:11;;;;;;;22.58;10.00;;;25.20;64.20;;;;;;4932936;28;88306;-20
2021/07/06 08:44:39;;;;;;;24.52;9.95;;;25.20;64.10;;;;;;4932043;28;90552;-42
2021/07/06 08:47:06;;;;;;;24.52;9.52;;;25.20;64.00;;;;;;4934467;28;88200;-32
2021/07/06 08:49:33;;;;;;;15.20;8.88;;;25.20;63.80;;;;;;4933949;28;87924;-17
2021/07/06 08:52:04;;;;;;;19.00;8.55;;;25.30;63.70;;;;;;4933729;28;88287;-16
2021/07/06 08:54:30;;;;;;;20.45;8.25;;;25.30;63.40;;;;;;4933248;28;87344;-30
2021/07/06 08:56:56;;;;;;;18.80;7.85;;;25.30;63.20;;;;;;4933699;28;87143;-35
2021/07/06 08:59:21;;;;;;;19.92;7.82;;;25.30;63.00;;;;;;4932182;28;87761;-29
2021/07/06 09:01:47;;;;;;;17.63;6.57;;;25.30;62.70;;;;;;4931969;28;88578;-37
2021/07/06 09:04:12;;;;;;;13.98;5.45;;;25.30;62.70;;;;;;4933727;28;88394;-20
2021/07/06 09:06:56;;;;;;;11.70;4.43;;;25.30;61.10;;;;;;4933921;28;87936;-17
2021/07/06 09:09:28;;;;;;;9.10;3.30;;;25.30;60.30;;;;;;4933917;28;88112;-16
2021/07/06 09:11:56;;;;;;;12.50;3.75;;;25.30;59.90;;;;;;4933268;28;87901;-40
2021/07/06 09:14:27;;;;;;;10.68;3.45;;;25.30;59.80;;;;;;4933651;28;87944;-19
2021/07/06 09:17:17;;;;;;;11.05;3.10;;;25.30;59.60;;;;;;4934111;28;87985;-28
2021/07/06 09:19:45;;;;;;;7.43;2.92;;;25.30;59.70;;;;;;4933815;28;87583;-31
2021/07/06 09:22:19;;;;;;;8.27;3.13;;;25.30;59.70;;;;;;4934036;28;87579;-14
2021/07/06 09:24:48;;;;;;;8.68;3.03;;;25.30;59.60;;;;;;4932356;28;88090;-26
2021/07/06 09:27:21;;;;;;;8.15;2.90;;;25.30;59.70;;;;;;4932253;28;88969;-20
2021/07/06 09:30:13;;;;;;;12.60;3.33;;;25.40;60.00;;;;;;4933757;28;87911;-12
2021/07/06 09:32:42;;;;;;;14.27;3.40;;;25.30;59.80;;;;;;4933623;28;88196;-30
2021/07/06 09:35:13;;;;;;;13.02;3.85;;;25.40;60.00;;;;;;4933069;28;88292;-19
2021/07/06 09:37:50;;;;;;;8.07;2.90;;;25.40;60.20;;;;;;4933515;28;88065;-14
2021/07/06 09:40:26;;;;;;;12.60;3.28;;;25.40;60.20;;;;;;4933440;28;87348;-18
2021/07/06 09:43:24;;;;;;;10.90;3.17;;;25.40;60.30;;;;;;4933371;28;88266;-15
2021/07/06 09:46:10;;;;;;;7.93;3.30;;;25.40;60.20;;;;;;4934300;28;87831;-13
2021/07/06 09:48:47;;;;;;;9.65;2.50;;;25.40;60.40;;;;;;4933259;28;87927;-17
2021/07/06 09:51:24;;;;;;;11.25;3.17;;;25.40;59.80;;;;;;4932183;28;88134;-14
2021/07/06 09:53:54;;;;;;;11.02;2.33;;;25.40;60.00;;;;;;4931463;28;89407;-17
2021/07/06 09:56:23;;;;;;;9.27;2.90;;;25.40;60.00;;;;;;4931825;28;88957;-25
2021/07/06 09:58:49;;;;;;;9.88;2.47;;;25.40;60.10;;;;;;4932802;28;87741;-28
2021/07/06 10:01:15;;;;;;;9.50;2.92;;;25.40;60.50;;;;;;4932745;28;87637;-16
2021/07/06 10:03:42;;;;;;;5.60;2.40;;;25.40;60.70;;;;;;4932276;28;88132;-14
2021/07/06 10:06:12;;;;;;;8.27;2.65;;;25.40;60.90;;;;;;4933164;28;88432;-18
2021/07/06 10:08:38;;;;;;;9.93;2.55;;;25.50;60.90;;;;;;4933574;28;87971;-31
2021/07/06 10:11:04;;;;;;;11.48;2.42;;;25.50;60.80;;;;;;4931471;28;89439;-15
2021/07/06 10:13:29;;;;;;;4.82;2.15;;;25.50;60.90;;;;;;4932546;28;88022;-18
2021/07/06 10:15:55;;;;;;;13.15;2.95;;;25.50;61.00;;;;;;4932372;28;87515;-24
2021/07/06 10:18:21;;;;;;;6.22;2.20;;;25.50;61.50;;;;;;4930881;28;89046;-28
2021/07/06 10:20:47;;;;;;;11.25;2.40;;;25.50;60.90;;;;;;4931654;28;88407;-16
2021/07/06 10:23:15;;;;;;;5.80;2.00;;;25.50;61.20;;;;;;4931226;28;88349;-17
2021/07/06 10:25:42;;;;;;;6.63;2.22;;;25.50;61.20;;;;;;4931117;28;87795;-19
2021/07/06 10:28:17;;;;;;;5.25;2.20;;;25.50;61.00;;;;;;4931787;28;87691;-16
2021/07/06 10:30:44;;;;;;;10.07;2.30;;;25.60;61.20;;;;;;4932943;28;87174;-17
2021/07/06 10:33:15;;;;;;;6.50;2.30;;;25.60;61.20;;;;;;4932356;28;88228;-14
2021/07/06 10:35:40;;;;;;;6.22;2.42;;;25.60;61.10;;;;;;4932478;28;87881;-17
2021/07/06 10:38:31;;;;;;;5.88;2.22;;;25.50;61.10;;;;;;4931702;28;87164;-17
2021/07/06 10:41:05;;;;;;;7.78;2.10;;;25.60;61.10;;;;;;4932547;28;87114;-22
2021/07/06 10:43:42;;;;;;;4.47;1.98;;;25.60;61.10;;;;;;4931673;28;90235;-15
2021/07/06 10:46:20;;;;;;;9.25;2.20;;;25.50;61.00;;;;;;4932414;28;88862;-17
2021/07/06 10:49:03;;;;;;;8.43;2.17;;;25.50;61.00;;;;;;4932198;28;87619;-21
2021/07/06 10:51:35;;;;;;;11.97;1.50;;;25.50;60.70;;;;;;4930993;28;90251;-16
2021/07/06 10:54:17;;;;;;;5.97;1.63;;;25.50;60.10;;;;;;4918243;28;87590;-23
2021/07/06 10:56:48;;;;;;;6.43;2.03;;;25.50;60.20;;;;;;4917362;28;87986;-17
2021/07/06 10:59:21;;;;;;;6.10;1.77;;;25.50;60.20;;;;;;4912629;28;87780;-19
2021/07/06 11:01:51;;;;;;;;;;;25.50;60.20;;;;;;4911864;28;90002;-25
2021/07/06 11:04:40;;;;;;;4.47;1.58;;;25.50;60.50;;;;;;4911491;28;90800;-34
2021/07/06 11:07:11;;;;;;;6.20;1.48;;;25.50;60.40;;;;;;4910953;28;91178;-19
2021/07/06 11:09:36;;;;;;;8.00;1.55;;;25.50;60.40;;;;;;4910093;28;88714;-17
2021/07/06 11:12:21;;;;;;;5.80;1.60;;;25.60;60.50;;;;;;4910216;28;88004;-19
2021/07/06 11:15:02;;;;;;;4.72;1.50;;;25.50;60.40;;;;;;4912208;28;89017;-29
2021/07/06 11:17:38;;;;;;;7.00;1.63;;;25.50;60.50;;;;;;4912095;28;88260;-19
2021/07/06 11:20:28;;;;;;;6.13;1.67;;;25.50;60.60;;;;;;4912567;28;87659;-17
2021/07/06 11:22:55;;;;;;;4.38;1.40;;;25.60;60.60;;;;;;4911509;28;87584;-20
2021/07/06 11:25:32;;;;;;;6.63;1.40;;;25.60;60.50;;;;;;4910106;28;91222;-16
2021/07/06 11:28:24;;;;;;;8.57;1.50;;;25.60;60.70;;;;;;4912174;28;88013;-30
2021/07/06 11:30:53;;;;;;;8.15;1.92;;;25.60;60.80;;;;;;4911674;28;88082;-24
2021/07/06 11:33:40;;;;;;;15.95;1.77;;;25.60;60.60;;;;;;4911101;28;88595;-21
2021/07/06 11:36:19;;;;;;;7.78;1.67;;;25.60;60.60;;;;;;4910345;28;89692;-17
2021/07/06 11:38:47;;;;;;;4.45;1.17;;;25.60;60.60;;;;;;4911283;28;88894;-17
2021/07/06 11:41:14;;;;;;;9.10;1.40;;;25.60;60.50;;;;;;4912194;28;87565;-27
2021/07/06 11:43:41;;;;;;;6.38;1.33;;;25.60;60.50;;;;;;4911677;28;87917;-19
2021/07/06 11:46:12;;;;;;;5.65;1.23;;;25.60;60.40;;;;;;4911504;28;90362;-22
2021/07/06 11:48:42;;;;;;;5.93;1.48;;;25.60;60.90;;;;;;4911272;28;88394;-18
2021/07/06 11:51:16;;;;;;;4.70;1.50;;;25.60;60.30;;;;;;4911367;28;87119;-16
2021/07/06 11:54:02;;;;;;;8.00;1.52;;;25.60;60.00;;;;;;4911002;28;86807;-30
2021/07/06 11:56:32;;;;;;;6.25;1.23;;;25.60;59.90;;;;;;4911700;28;88300;-27
2021/07/06 11:58:58;;;;;;;7.30;1.35;;;25.60;60.10;;;;;;4911345;28;89206;-31
2021/07/06 12:01:24;;;;;;;7.85;1.42;;;25.60;59.80;;;;;;4910488;28;89227;-21
2021/07/06 12:03:49;;;;;;;7.80;1.60;;;25.50;59.80;;;;;;4910998;28;88260;-24
2021/07/06 12:06:22;;;;;;;4.78;1.20;;;25.50;59.70;;;;;;4910801;28;89125;-16
2021/07/06 12:08:52;;;;;;;6.32;1.52;;;25.50;59.60;;;;;;4911308;28;87767;-26
2021/07/06 12:11:23;;;;;;;7.60;1.52;;;25.50;59.60;;;;;;4911755;28;87159;-21
2021/07/06 12:13:51;;;;;;;4.90;1.00;;;25.50;59.70;;;;;;4910816;28;87221;-21
2021/07/06 12:16:25;;;;;;;7.43;1.30;;;25.60;59.70;;;;;;4910494;28;90409;-18
2021/07/06 12:18:51;;;;;;;10.35;1.30;;;25.50;59.70;;;;;;4911618;28;87112;-20
2021/07/06 12:21:37;;;;;;;7.28;1.58;;;25.60;59.70;;;;;;4912148;28;87551;-28
2021/07/06 12:24:18;;;;;;;4.07;0.93;;;25.60;59.70;;;;;;4911541;28;87308;-23
2021/07/06 12:26:48;;;;;;;3.85;1.00;;;25.50;59.10;;;;;;4910596;28;89402;-25
2021/07/06 12:29:24;;;;;;;10.52;1.27;;;25.50;57.10;;;;;;4910588;28;89786;-31
2021/07/06 12:31:50;;;;;;;7.53;1.25;;;25.50;57.00;;;;;;4909136;28;88531;-24
2021/07/06 12:34:17;;;;;;;6.10;0.82;;;25.50;56.30;;;;;;4910714;28;87972;-19
2021/07/06 12:36:54;;;;;;;9.57;1.20;;;25.50;56.10;;;;;;4911188;28;88012;-23
2021/07/06 12:39:25;;;;;;;5.30;1.00;;;25.50;55.80;;;;;;4911360;28;87816;-33